sensor_id;sensor_type;location;lat;lon;timestamp;pressure;altitude;pressure_sealevel;temperature;humidity
66430;BME280;53242;51.694;10.006;2023-04-26T00:00:35;99604.28;;;5.03;67.63
66430;BME280;53242;51.694;10.006;2023-04-26T00:02:58;99614.94;;;5.09;67.54
66430;BME280;53242;51.694;10.006;2023-04-26T00:05:24;99611.34;;;5.10;67.29
66430;BME280;53242;51.694;10.006;2023-04-26T00:07:47;99616.53;;;5.02;67.58
66430;BME280;53242;51.694;10.006;2023-04-26T00:10:11;99618.91;;;4.87;68.30
66430;BME280;53242;51.694;10.006;2023-04-26T00:12:34;99620.66;;;4.78;68.91
66430;BME280;53242;51.694;10.006;2023-04-26T00:14:57;99623.47;;;5.12;67.67
66430;BME280;53242;51.694;10.006;2023-04-26T00:17:19;99618.16;;;5.03;67.84
66430;BME280;53242;51.694;10.006;2023-04-26T00:19:42;99620.84;;;4.85;68.12
66430;BME280;53242;51.694;10.006;2023-04-26T00:22:04;99620.91;;;4.93;68.21
66430;BME280;53242;51.694;10.006;2023-04-26T00:24:27;99616.31;;;4.96;68.12
66430;BME280;53242;51.694;10.006;2023-04-26T00:26:53;99623.47;;;4.85;68.70
66430;BME280;53242;51.694;10.006;2023-04-26T00:29:15;99618.66;;;4.99;68.04
66430;BME280;53242;51.694;10.006;2023-04-26T00:31:38;99620.75;;;4.95;67.73
66430;BME280;53242;51.694;10.006;2023-04-26T00:34:00;99617.28;;;4.94;67.70
66430;BME280;53242;51.694;10.006;2023-04-26T00:36:23;99621.69;;;4.86;68.07
66430;BME280;53242;51.694;10.006;2023-04-26T00:38:45;99617.59;;;4.83;68.32
66430;BME280;53242;51.694;10.006;2023-04-26T00:41:08;99619.91;;;4.94;67.75
66430;BME280;53242;51.694;10.006;2023-04-26T00:43:30;99618.59;;;4.90;68.36
66430;BME280;53242;51.694;10.006;2023-04-26T00:45:53;99623.09;;;4.80;68.49
66430;BME280;53242;51.694;10.006;2023-04-26T00:48:15;99627.72;;;4.86;68.30
66430;BME280;53242;51.694;10.006;2023-04-26T00:50:39;99620.69;;;4.87;68.06
66430;BME280;53242;51.694;10.006;2023-04-26T00:53:01;99624.59;;;4.83;67.98
66430;BME280;53242;51.694;10.006;2023-04-26T00:55:24;99620.44;;;4.72;68.11
66430;BME280;53242;51.694;10.006;2023-04-26T00:57:48;99622.53;;;4.68;68.35
66430;BME280;53242;51.694;10.006;2023-04-26T01:00:11;99624.91;;;4.80;68.52
66430;BME280;53242;51.694;10.006;2023-04-26T01:02:33;99622.59;;;4.76;68.32
66430;BME280;53242;51.694;10.006;2023-04-26T01:04:55;99626.47;;;4.72;68.39
66430;BME280;53242;51.694;10.006;2023-04-26T01:07:18;99633.56;;;4.54;69.24
66430;BME280;53242;51.694;10.006;2023-04-26T01:09:41;99631.34;;;4.67;68.79
66430;BME280;53242;51.694;10.006;2023-04-26T01:12:06;99632.13;;;4.59;69.22
66430;BME280;53242;51.694;10.006;2023-04-26T01:14:29;99634.69;;;4.51;69.42
66430;BME280;53242;51.694;10.006;2023-04-26T01:16:51;99639.94;;;4.59;68.92
66430;BME280;53242;51.694;10.006;2023-04-26T01:19:14;99640.81;;;4.42;69.75
66430;BME280;53242;51.694;10.006;2023-04-26T01:21:38;99640.91;;;4.58;69.37
66430;BME280;53242;51.694;10.006;2023-04-26T01:24:01;99640.03;;;4.68;68.82
66430;BME280;53242;51.694;10.006;2023-04-26T01:26:23;99640.66;;;4.43;69.63
66430;BME280;53242;51.694;10.006;2023-04-26T01:28:46;99636.25;;;4.44;69.74
66430;BME280;53242;51.694;10.006;2023-04-26T01:31:11;99644.38;;;4.41;69.87
66430;BME280;53242;51.694;10.006;2023-04-26T01:33:33;99642.91;;;4.38;69.40
66430;BME280;53242;51.694;10.006;2023-04-26T01:35:56;99645.72;;;4.45;69.40
66430;BME280;53242;51.694;10.006;2023-04-26T01:38:18;99645.72;;;4.45;69.64
66430;BME280;53242;51.694;10.006;2023-04-26T01:40:42;99641.84;;;4.31;69.58
66430;BME280;53242;51.694;10.006;2023-04-26T01:43:07;99644.03;;;4.18;70.29
66430;BME280;53242;51.694;10.006;2023-04-26T01:45:29;99646.09;;;4.32;70.29
66430;BME280;53242;51.694;10.006;2023-04-26T01:48:10;99644.63;;;4.30;70.02
66430;BME280;53242;51.694;10.006;2023-04-26T01:50:33;99639.97;;;4.23;69.66
66430;BME280;53242;51.694;10.006;2023-04-26T01:52:55;99644.03;;;4.36;69.67
66430;BME280;53242;51.694;10.006;2023-04-26T01:55:17;99644.03;;;4.36;69.40
66430;BME280;53242;51.694;10.006;2023-04-26T01:57:40;99635.72;;;4.22;69.59
66430;BME280;53242;51.694;10.006;2023-04-26T02:00:02;99641.63;;;4.24;69.69
66430;BME280;53242;51.694;10.006;2023-04-26T02:02:35;99637.38;;;4.23;70.02
66430;BME280;53242;51.694;10.006;2023-04-26T02:04:58;99636.94;;;4.10;70.17
66430;BME280;53242;51.694;10.006;2023-04-26T02:07:22;99633.25;;;4.03;69.97
66430;BME280;53242;51.694;10.006;2023-04-26T02:09:44;99633.84;;;4.15;70.43
66430;BME280;53242;51.694;10.006;2023-04-26T02:12:07;99628.78;;;3.95;70.08
66430;BME280;53242;51.694;10.006;2023-04-26T02:14:30;99628.88;;;3.85;70.58
66430;BME280;53242;51.694;10.006;2023-04-26T02:16:52;99624.69;;;3.92;70.84
66430;BME280;53242;51.694;10.006;2023-04-26T02:19:14;99623.28;;;3.98;70.75
66430;BME280;53242;51.694;10.006;2023-04-26T02:21:50;99630.66;;;4.03;70.41
66430;BME280;53242;51.694;10.006;2023-04-26T02:24:13;99632.31;;;4.04;70.18
66430;BME280;53242;51.694;10.006;2023-04-26T02:26:36;99634.38;;;4.18;70.22
66430;BME280;53242;51.694;10.006;2023-04-26T02:28:58;99629.31;;;4.17;69.55
66430;BME280;53242;51.694;10.006;2023-04-26T02:31:21;99634.75;;;3.87;70.73
66430;BME280;53242;51.694;10.006;2023-04-26T02:33:43;99643.88;;;3.73;71.15
66430;BME280;53242;51.694;10.006;2023-04-26T02:36:07;99642.97;;;3.92;70.22
66430;BME280;53242;51.694;10.006;2023-04-26T02:38:29;99644.09;;;4.08;70.07
66430;BME280;53242;51.694;10.006;2023-04-26T02:40:59;99633.56;;;4.00;70.38
66430;BME280;53242;51.694;10.006;2023-04-26T02:43:22;99634.47;;;3.90;70.41
66430;BME280;53242;51.694;10.006;2023-04-26T02:45:44;99633.06;;;3.68;70.83
66430;BME280;53242;51.694;10.006;2023-04-26T02:48:09;99634.66;;;3.79;71.21
66430;BME280;53242;51.694;10.006;2023-04-26T02:50:31;99627.81;;;3.78;70.96
66430;BME280;53242;51.694;10.006;2023-04-26T02:52:53;99633.56;;;4.00;71.00
66430;BME280;53242;51.694;10.006;2023-04-26T02:55:16;99633.78;;;4.06;70.28
66430;BME280;53242;51.694;10.006;2023-04-26T02:57:39;99629.09;;;3.92;70.40
66430;BME280;53242;51.694;10.006;2023-04-26T03:00:03;99635.25;;;3.73;71.07
66430;BME280;53242;51.694;10.006;2023-04-26T03:02:26;99631.31;;;3.87;70.57
66430;BME280;53242;51.694;10.006;2023-04-26T03:04:49;99627.50;;;3.81;70.87
66430;BME280;53242;51.694;10.006;2023-04-26T03:07:12;99634.31;;;3.92;70.38
66430;BME280;53242;51.694;10.006;2023-04-26T03:09:34;99631.72;;;3.64;70.59
66430;BME280;53242;51.694;10.006;2023-04-26T03:11:59;99628.34;;;3.82;70.67
66430;BME280;53242;51.694;10.006;2023-04-26T03:14:22;99637.81;;;3.55;71.24
66430;BME280;53242;51.694;10.006;2023-04-26T03:16:44;99631.34;;;3.59;71.92
66430;BME280;53242;51.694;10.006;2023-04-26T03:19:06;99633.91;;;3.69;71.20
66430;BME280;53242;51.694;10.006;2023-04-26T03:21:29;99636.31;;;3.52;71.73
66430;BME280;53242;51.694;10.006;2023-04-26T03:23:53;99632.84;;;3.61;71.47
66430;BME280;53242;51.694;10.006;2023-04-26T03:26:15;99640.00;;;3.59;71.54
66430;BME280;53242;51.694;10.006;2023-04-26T03:28:38;99639.78;;;3.71;71.35
66430;BME280;53242;51.694;10.006;2023-04-26T03:31:01;99640.16;;;3.76;70.94
66430;BME280;53242;51.694;10.006;2023-04-26T03:33:25;99633.31;;;3.75;70.84
66430;BME280;53242;51.694;10.006;2023-04-26T03:35:48;99638.03;;;3.89;70.59
66430;BME280;53242;51.694;10.006;2023-04-26T03:38:11;99632.66;;;3.91;69.89
66430;BME280;53242;51.694;10.006;2023-04-26T03:40:33;99635.19;;;3.83;70.91
66430;BME280;53242;51.694;10.006;2023-04-26T03:42:55;99641.31;;;3.91;70.38
66430;BME280;53242;51.694;10.006;2023-04-26T03:45:18;99636.06;;;3.73;70.31
66430;BME280;53242;51.694;10.006;2023-04-26T03:47:41;99633.59;;;3.72;70.78
66430;BME280;53242;51.694;10.006;2023-04-26T03:50:03;99639.69;;;3.90;70.36
66430;BME280;53242;51.694;10.006;2023-04-26T03:52:26;99638.53;;;3.75;70.29
66430;BME280;53242;51.694;10.006;2023-04-26T03:54:49;99639.78;;;3.71;70.38
66430;BME280;53242;51.694;10.006;2023-04-26T03:57:12;99639.00;;;3.88;70.39
66430;BME280;53242;51.694;10.006;2023-04-26T03:59:35;99639.19;;;3.77;70.86
66430;BME280;53242;51.694;10.006;2023-04-26T04:01:59;99644.50;;;3.67;70.40
66430;BME280;53242;51.694;10.006;2023-04-26T04:04:22;99638.41;;;3.49;71.94
66430;BME280;53242;51.694;10.006;2023-04-26T04:06:44;99634.47;;;3.35;72.60
66430;BME280;53242;51.694;10.006;2023-04-26T04:09:07;99631.63;;;3.56;71.61
66430;BME280;53242;51.694;10.006;2023-04-26T04:11:30;99630.81;;;3.55;71.69
66430;BME280;53242;51.694;10.006;2023-04-26T04:13:52;99637.63;;;3.66;71.09
66430;BME280;53242;51.694;10.006;2023-04-26T04:16:15;99639.41;;;3.66;70.82
66430;BME280;53242;51.694;10.006;2023-04-26T04:18:37;99642.66;;;3.77;71.06
66430;BME280;53242;51.694;10.006;2023-04-26T04:21:00;99631.38;;;3.77;70.58
66430;BME280;53242;51.694;10.006;2023-04-26T04:23:22;99640.47;;;3.73;70.44
66430;BME280;53242;51.694;10.006;2023-04-26T04:25:45;99644.28;;;3.78;71.04
66430;BME280;53242;51.694;10.006;2023-04-26T04:28:09;99639.34;;;3.75;70.68
66430;BME280;53242;51.694;10.006;2023-04-26T04:30:32;99643.09;;;3.73;70.71
66430;BME280;53242;51.694;10.006;2023-04-26T04:32:56;99643.78;;;3.75;70.87
66430;BME280;53242;51.694;10.006;2023-04-26T04:35:21;99643.47;;;3.78;70.82
66430;BME280;53242;51.694;10.006;2023-04-26T04:37:44;99645.91;;;3.79;70.36
66430;BME280;53242;51.694;10.006;2023-04-26T04:40:08;99651.25;;;3.88;70.45
66430;BME280;53242;51.694;10.006;2023-04-26T04:42:36;99650.41;;;3.87;70.48
66430;BME280;53242;51.694;10.006;2023-04-26T04:45:01;99651.91;;;3.90;70.37
66430;BME280;53242;51.694;10.006;2023-04-26T04:47:25;99644.44;;;3.95;70.00
66430;BME280;53242;51.694;10.006;2023-04-26T04:49:47;99649.88;;;3.84;70.37
66430;BME280;53242;51.694;10.006;2023-04-26T04:52:10;99656.97;;;3.91;70.05
66430;BME280;53242;51.694;10.006;2023-04-26T04:54:33;99653.13;;;3.95;70.33
66430;BME280;53242;51.694;10.006;2023-04-26T04:56:57;99662.84;;;4.03;70.04
66430;BME280;53242;51.694;10.006;2023-04-26T04:59:19;99663.94;;;4.01;70.25
66430;BME280;53242;51.694;10.006;2023-04-26T05:01:43;99665.34;;;3.95;70.56
66430;BME280;53242;51.694;10.006;2023-04-26T05:04:10;99671.69;;;3.92;70.97
66430;BME280;53242;51.694;10.006;2023-04-26T05:06:33;99672.22;;;3.96;70.71
66430;BME280;53242;51.694;10.006;2023-04-26T05:08:56;99672.81;;;3.62;72.02
66430;BME280;53242;51.694;10.006;2023-04-26T05:11:19;99668.25;;;3.64;72.38
66430;BME280;53242;51.694;10.006;2023-04-26T05:13:42;99673.13;;;3.77;72.22
66430;BME280;53242;51.694;10.006;2023-04-26T05:16:04;99672.03;;;3.79;71.84
66430;BME280;53242;51.694;10.006;2023-04-26T05:18:27;99669.13;;;3.55;72.65
66430;BME280;53242;51.694;10.006;2023-04-26T05:20:49;99677.19;;;3.61;73.21
66430;BME280;53242;51.694;10.006;2023-04-26T05:23:12;99670.38;;;3.78;72.48
66430;BME280;53242;51.694;10.006;2023-04-26T05:25:37;99677.00;;;3.73;72.17
66430;BME280;53242;51.694;10.006;2023-04-26T05:28:32;99677.81;;;3.73;72.59
66430;BME280;53242;51.694;10.006;2023-04-26T05:31:07;99678.41;;;3.95;72.10
66430;BME280;53242;51.694;10.006;2023-04-26T05:33:53;99684.47;;;3.95;72.52
66430;BME280;53242;51.694;10.006;2023-04-26T05:36:24;99679.97;;;3.88;72.69
66430;BME280;53242;51.694;10.006;2023-04-26T05:38:47;99688.63;;;3.88;72.89
66430;BME280;53242;51.694;10.006;2023-04-26T05:41:10;99691.41;;;3.77;73.38
66430;BME280;53242;51.694;10.006;2023-04-26T05:43:34;99699.75;;;3.90;73.48
66430;BME280;53242;51.694;10.006;2023-04-26T05:45:56;99695.78;;;4.04;72.96
66430;BME280;53242;51.694;10.006;2023-04-26T05:48:20;99701.41;;;4.27;72.35
66430;BME280;53242;51.694;10.006;2023-04-26T05:50:43;99696.34;;;4.44;71.91
66430;BME280;53242;51.694;10.006;2023-04-26T05:53:06;99702.50;;;4.79;70.86
66430;BME280;53242;51.694;10.006;2023-04-26T05:55:28;99700.31;;;5.10;70.29
66430;BME280;53242;51.694;10.006;2023-04-26T05:57:51;99695.81;;;5.29;69.56
66430;BME280;53242;51.694;10.006;2023-04-26T06:00:14;99693.88;;;5.31;69.15
66430;BME280;53242;51.694;10.006;2023-04-26T06:02:38;99700.50;;;5.43;68.87
66430;BME280;53242;51.694;10.006;2023-04-26T06:05:00;99698.69;;;5.87;67.83
66430;BME280;53242;51.694;10.006;2023-04-26T06:07:23;99698.88;;;5.93;67.92
66430;BME280;53242;51.694;10.006;2023-04-26T06:09:45;99699.47;;;6.14;67.36
66430;BME280;53242;51.694;10.006;2023-04-26T06:12:08;99699.97;;;6.17;67.58
66430;BME280;53242;51.694;10.006;2023-04-26T06:14:34;99700.00;;;6.34;66.94
66430;BME280;53242;51.694;10.006;2023-04-26T06:17:01;99692.63;;;6.54;66.52
66430;BME280;53242;51.694;10.006;2023-04-26T06:19:24;99695.25;;;6.54;66.88
66430;BME280;53242;51.694;10.006;2023-04-26T06:21:47;99704.13;;;6.78;66.29
66430;BME280;53242;51.694;10.006;2023-04-26T06:24:10;99706.44;;;6.72;66.72
66430;BME280;53242;51.694;10.006;2023-04-26T06:26:32;99709.03;;;6.89;66.67
66430;BME280;53242;51.694;10.006;2023-04-26T06:28:55;99699.38;;;6.73;66.90
66430;BME280;53242;51.694;10.006;2023-04-26T06:31:18;99709.34;;;7.11;65.98
66430;BME280;53242;51.694;10.006;2023-04-26T06:33:43;99708.84;;;6.99;66.05
66430;BME280;53242;51.694;10.006;2023-04-26T06:36:10;99703.56;;;7.23;65.34
66430;BME280;53242;51.694;10.006;2023-04-26T06:38:33;99708.13;;;7.46;64.56
66430;BME280;53242;51.694;10.006;2023-04-26T06:40:55;99703.50;;;7.48;64.61
66430;BME280;53242;51.694;10.006;2023-04-26T06:43:18;99706.59;;;7.52;64.47
66430;BME280;53242;51.694;10.006;2023-04-26T06:46:01;99705.88;;;7.27;64.82
66430;BME280;53242;51.694;10.006;2023-04-26T06:48:23;99710.28;;;7.82;63.47
66430;BME280;53242;51.694;10.006;2023-04-26T06:50:46;99700.38;;;7.93;62.66
66430;BME280;53242;51.694;10.006;2023-04-26T06:53:08;99709.38;;;7.58;63.92
66430;BME280;53242;51.694;10.006;2023-04-26T06:55:30;99707.34;;;7.77;63.23
66430;BME280;53242;51.694;10.006;2023-04-26T06:57:53;99708.03;;;7.71;63.21
66430;BME280;53242;51.694;10.006;2023-04-26T07:00:15;99720.22;;;7.55;63.39
66430;BME280;53242;51.694;10.006;2023-04-26T07:02:39;99721.63;;;7.18;64.65
66430;BME280;53242;51.694;10.006;2023-04-26T07:05:02;99718.63;;;7.38;63.64
66430;BME280;53242;51.694;10.006;2023-04-26T07:07:25;99716.34;;;7.35;62.16
66430;BME280;53242;51.694;10.006;2023-04-26T07:09:48;99724.88;;;7.37;62.97
66430;BME280;53242;51.694;10.006;2023-04-26T07:12:11;99716.53;;;7.81;62.52
66430;BME280;53242;51.694;10.006;2023-04-26T07:14:35;99719.22;;;7.65;61.70
66430;BME280;53242;51.694;10.006;2023-04-26T07:16:59;99726.50;;;7.38;61.75
66430;BME280;53242;51.694;10.006;2023-04-26T07:19:22;99727.53;;;7.20;63.06
66430;BME280;53242;51.694;10.006;2023-04-26T07:21:44;99728.16;;;7.39;62.13
66430;BME280;53242;51.694;10.006;2023-04-26T07:24:07;99723.53;;;7.97;60.30
66430;BME280;53242;51.694;10.006;2023-04-26T07:26:29;99716.56;;;8.04;59.53
66430;BME280;53242;51.694;10.006;2023-04-26T07:28:52;99720.97;;;8.12;58.91
66430;BME280;53242;51.694;10.006;2023-04-26T07:31:15;99715.72;;;8.67;58.40
66430;BME280;53242;51.694;10.006;2023-04-26T07:33:37;99720.47;;;8.17;59.06
66430;BME280;53242;51.694;10.006;2023-04-26T07:36:00;99733.91;;;8.53;56.58
66430;BME280;53242;51.694;10.006;2023-04-26T07:38:23;99728.00;;;8.20;56.88
66430;BME280;53242;51.694;10.006;2023-04-26T07:40:45;99717.88;;;8.09;57.70
66430;BME280;53242;51.694;10.006;2023-04-26T07:43:08;99732.34;;;7.73;58.76
66430;BME280;53242;51.694;10.006;2023-04-26T07:45:31;99732.63;;;7.78;59.05
66430;BME280;53242;51.694;10.006;2023-04-26T07:47:53;99730.06;;;8.33;57.86
66430;BME280;53242;51.694;10.006;2023-04-26T07:50:16;99731.41;;;7.97;59.20
66430;BME280;53242;51.694;10.006;2023-04-26T07:52:38;99731.81;;;7.78;58.78
66430;BME280;53242;51.694;10.006;2023-04-26T07:55:01;99732.47;;;7.71;58.57
66430;BME280;53242;51.694;10.006;2023-04-26T07:57:23;99735.31;;;7.62;58.88
66430;BME280;53242;51.694;10.006;2023-04-26T07:59:45;99728.56;;;7.67;58.42
66430;BME280;53242;51.694;10.006;2023-04-26T08:02:08;99731.00;;;7.69;58.36
66430;BME280;53242;51.694;10.006;2023-04-26T08:04:32;99726.34;;;8.19;57.59
66430;BME280;53242;51.694;10.006;2023-04-26T08:06:55;99722.56;;;8.21;56.84
66430;BME280;53242;51.694;10.006;2023-04-26T08:09:18;99722.41;;;8.23;56.34
66430;BME280;53242;51.694;10.006;2023-04-26T08:11:40;99724.59;;;8.43;55.28
66430;BME280;53242;51.694;10.006;2023-04-26T08:14:03;99721.94;;;8.43;55.85
66430;BME280;53242;51.694;10.006;2023-04-26T08:16:25;99718.06;;;9.00;54.95
66430;BME280;53242;51.694;10.006;2023-04-26T08:18:47;99720.41;;;8.57;55.15
66430;BME280;53242;51.694;10.006;2023-04-26T08:21:10;99719.84;;;8.38;55.14
66430;BME280;53242;51.694;10.006;2023-04-26T08:23:35;99725.91;;;8.47;55.48
66430;BME280;53242;51.694;10.006;2023-04-26T08:25:58;99719.72;;;8.31;55.96
66430;BME280;53242;51.694;10.006;2023-04-26T08:28:20;99725.50;;;8.27;55.03
66430;BME280;53242;51.694;10.006;2023-04-26T08:30:42;99712.19;;;7.97;54.56
66430;BME280;53242;51.694;10.006;2023-04-26T08:33:05;99712.31;;;8.03;54.32
66430;BME280;53242;51.694;10.006;2023-04-26T08:35:28;99715.94;;;8.02;52.94
66430;BME280;53242;51.694;10.006;2023-04-26T08:37:50;99714.25;;;8.41;51.42
66430;BME280;53242;51.694;10.006;2023-04-26T08:40:12;99725.03;;;8.23;52.69
66430;BME280;53242;51.694;10.006;2023-04-26T08:42:40;99712.31;;;8.03;51.58
66430;BME280;53242;51.694;10.006;2023-04-26T08:45:03;99726.25;;;8.35;51.60
66430;BME280;53242;51.694;10.006;2023-04-26T08:47:42;99723.22;;;7.92;51.59
66430;BME280;53242;51.694;10.006;2023-04-26T08:50:07;99729.59;;;7.89;52.18
66430;BME280;53242;51.694;10.006;2023-04-26T08:52:31;99726.41;;;7.71;52.86
66430;BME280;53242;51.694;10.006;2023-04-26T08:54:56;99721.50;;;7.68;53.03
66430;BME280;53242;51.694;10.006;2023-04-26T08:57:20;99736.66;;;7.49;53.04
66430;BME280;53242;51.694;10.006;2023-04-26T08:59:42;99730.06;;;7.62;52.23
66430;BME280;53242;51.694;10.006;2023-04-26T09:02:06;99731.88;;;7.53;52.33
66430;BME280;53242;51.694;10.006;2023-04-26T09:04:28;99728.22;;;7.70;52.10
66430;BME280;53242;51.694;10.006;2023-04-26T09:06:52;99728.97;;;7.87;51.05
66430;BME280;53242;51.694;10.006;2023-04-26T09:09:20;99734.97;;;7.73;51.64
66430;BME280;53242;51.694;10.006;2023-04-26T09:12:02;99742.28;;;7.86;51.79
66430;BME280;53242;51.694;10.006;2023-04-26T09:14:25;99739.41;;;7.56;54.08
66430;BME280;53242;51.694;10.006;2023-04-26T09:16:48;99746.22;;;7.42;55.21
66430;BME280;53242;51.694;10.006;2023-04-26T09:19:11;99735.28;;;7.70;55.25
66430;BME280;53242;51.694;10.006;2023-04-26T09:21:41;99736.94;;;7.71;55.76
66430;BME280;53242;51.694;10.006;2023-04-26T09:24:04;99749.56;;;7.76;56.13
66430;BME280;53242;51.694;10.006;2023-04-26T09:26:27;99745.16;;;8.07;55.98
66430;BME280;53242;51.694;10.006;2023-04-26T09:29:09;99747.38;;;7.79;56.28
66430;BME280;53242;51.694;10.006;2023-04-26T09:31:41;99744.69;;;7.96;55.82
66430;BME280;53242;51.694;10.006;2023-04-26T09:34:03;99749.25;;;7.70;55.30
66430;BME280;53242;51.694;10.006;2023-04-26T09:36:25;99745.47;;;7.73;55.80
66430;BME280;53242;51.694;10.006;2023-04-26T09:38:48;99738.81;;;7.94;54.86
66430;BME280;53242;51.694;10.006;2023-04-26T09:41:11;99738.53;;;7.80;55.34
66430;BME280;53242;51.694;10.006;2023-04-26T09:43:36;99738.16;;;7.92;54.91
66430;BME280;53242;51.694;10.006;2023-04-26T09:45:59;99739.13;;;7.99;55.11
66430;BME280;53242;51.694;10.006;2023-04-26T09:48:29;99747.56;;;7.78;55.45
66430;BME280;53242;51.694;10.006;2023-04-26T09:50:54;99741.63;;;7.92;54.95
66430;BME280;53242;51.694;10.006;2023-04-26T09:53:33;99739.50;;;7.87;55.26
66430;BME280;53242;51.694;10.006;2023-04-26T10:01:09;99745.84;;;8.01;55.57
66430;BME280;53242;51.694;10.006;2023-04-26T10:03:33;99744.44;;;8.22;55.11
66430;BME280;53242;51.694;10.006;2023-04-26T10:05:56;99740.16;;;8.21;55.24
66430;BME280;53242;51.694;10.006;2023-04-26T10:08:18;99734.72;;;8.22;55.40
66430;BME280;53242;51.694;10.006;2023-04-26T10:10:41;99740.94;;;8.30;55.33
66430;BME280;53242;51.694;10.006;2023-04-26T10:13:05;99731.78;;;8.17;56.12
66430;BME280;53242;51.694;10.006;2023-04-26T10:15:28;99743.25;;;8.25;56.05
66430;BME280;53242;51.694;10.006;2023-04-26T10:17:50;99743.78;;;8.20;56.33
66430;BME280;53242;51.694;10.006;2023-04-26T10:20:14;99744.06;;;8.25;56.33
66430;BME280;53242;51.694;10.006;2023-04-26T10:22:43;99735.25;;;8.18;56.60
66430;BME280;53242;51.694;10.006;2023-04-26T10:25:07;99726.22;;;8.12;55.93
66430;BME280;53242;51.694;10.006;2023-04-26T10:30:06;99735.97;;;8.35;53.61
66430;BME280;53242;51.694;10.006;2023-04-26T10:32:29;99734.38;;;8.26;52.86
66430;BME280;53242;51.694;10.006;2023-04-26T10:35:11;99742.97;;;8.19;52.16
66430;BME280;53242;51.694;10.006;2023-04-26T10:37:34;99740.75;;;8.00;52.10
66430;BME280;53242;51.694;10.006;2023-04-26T10:40:23;99734.19;;;7.96;52.16
66430;BME280;53242;51.694;10.006;2023-04-26T10:42:46;99740.31;;;7.88;51.83
66430;BME280;53242;51.694;10.006;2023-04-26T10:45:28;99734.53;;;7.93;51.80
66430;BME280;53242;51.694;10.006;2023-04-26T10:48:14;99727.44;;;8.33;51.20
66430;BME280;53242;51.694;10.006;2023-04-26T10:56:06;99727.81;;;9.14;49.92
66430;BME280;53242;51.694;10.006;2023-04-26T10:58:33;99737.06;;;8.95;48.90
66430;BME280;53242;51.694;10.006;2023-04-26T11:01:12;99727.38;;;9.26;48.18
66430;BME280;53242;51.694;10.006;2023-04-26T11:03:39;99737.66;;;9.50;48.36
66430;BME280;53242;51.694;10.006;2023-04-26T11:06:11;99725.22;;;9.44;48.24
66430;BME280;53242;51.694;10.006;2023-04-26T11:08:36;99730.16;;;9.09;47.75
66430;BME280;53242;51.694;10.006;2023-04-26T11:13:24;99717.22;;;9.23;47.09
66430;BME280;53242;51.694;10.006;2023-04-26T11:15:51;99715.28;;;8.78;47.21
66430;BME280;53242;51.694;10.006;2023-04-26T11:18:17;99719.81;;;8.69;48.52
66430;BME280;53242;51.694;10.006;2023-04-26T11:20:40;99724.22;;;8.54;49.34
66430;BME280;53242;51.694;10.006;2023-04-26T11:23:06;99719.09;;;8.52;49.59
66430;BME280;53242;51.694;10.006;2023-04-26T11:25:29;99724.22;;;8.54;50.02
66430;BME280;53242;51.694;10.006;2023-04-26T11:27:58;99723.66;;;8.59;50.18
66430;BME280;53242;51.694;10.006;2023-04-26T11:30:21;99718.13;;;8.53;50.31
66430;BME280;53242;51.694;10.006;2023-04-26T11:32:45;99717.88;;;8.63;49.45
66430;BME280;53242;51.694;10.006;2023-04-26T11:35:07;99717.91;;;8.78;49.35
66430;BME280;53242;51.694;10.006;2023-04-26T11:37:30;99716.69;;;8.89;49.04
66430;BME280;53242;51.694;10.006;2023-04-26T11:39:52;99719.72;;;9.01;48.29
66430;BME280;53242;51.694;10.006;2023-04-26T11:42:15;99727.84;;;9.29;48.55
66430;BME280;53242;51.694;10.006;2023-04-26T11:44:39;99720.47;;;9.25;47.80
66430;BME280;53242;51.694;10.006;2023-04-26T11:47:02;99728.28;;;9.48;47.05
66430;BME280;53242;51.694;10.006;2023-04-26T11:49:25;99724.47;;;9.50;46.46
66430;BME280;53242;51.694;10.006;2023-04-26T11:51:47;99714.13;;;9.34;46.75
66430;BME280;53242;51.694;10.006;2023-04-26T11:54:10;99717.22;;;9.23;46.46
66430;BME280;53242;51.694;10.006;2023-04-26T11:56:33;99720.50;;;9.54;46.65
66430;BME280;53242;51.694;10.006;2023-04-26T11:58:55;99723.56;;;9.28;46.28
66430;BME280;53242;51.694;10.006;2023-04-26T12:01:27;99725.63;;;9.18;46.90
66430;BME280;53242;51.694;10.006;2023-04-26T12:03:51;99719.75;;;9.31;47.04
66430;BME280;53242;51.694;10.006;2023-04-26T12:06:13;99727.53;;;9.09;47.34
66430;BME280;53242;51.694;10.006;2023-04-26T12:08:36;99724.97;;;9.01;47.02
66430;BME280;53242;51.694;10.006;2023-04-26T12:11:01;99729.16;;;9.10;46.94
66430;BME280;53242;51.694;10.006;2023-04-26T12:13:24;99728.25;;;9.03;47.43
66430;BME280;53242;51.694;10.006;2023-04-26T12:15:46;99724.13;;;9.24;46.53
66430;BME280;53242;51.694;10.006;2023-04-26T12:18:09;99720.84;;;9.51;46.38
66430;BME280;53242;51.694;10.006;2023-04-26T12:20:35;99724.31;;;9.37;46.14
66430;BME280;53242;51.694;10.006;2023-04-26T12:23:05;99730.94;;;9.78;46.39
66430;BME280;53242;51.694;10.006;2023-04-26T12:25:28;99727.84;;;9.74;45.43
66430;BME280;53242;51.694;10.006;2023-04-26T12:27:50;99728.75;;;9.66;45.02
66430;BME280;53242;51.694;10.006;2023-04-26T12:30:13;99716.78;;;9.64;44.80
66430;BME280;53242;51.694;10.006;2023-04-26T12:32:35;99722.00;;;9.79;44.64
66430;BME280;53242;51.694;10.006;2023-04-26T12:34:57;99717.75;;;9.48;45.17
66430;BME280;53242;51.694;10.006;2023-04-26T12:37:20;99720.31;;;9.26;44.42
66430;BME280;53242;51.694;10.006;2023-04-26T12:39:42;99723.44;;;9.07;45.09
66430;BME280;53242;51.694;10.006;2023-04-26T12:42:05;99719.81;;;9.08;45.72
66430;BME280;53242;51.694;10.006;2023-04-26T12:44:28;99726.75;;;9.24;45.65
66430;BME280;53242;51.694;10.006;2023-04-26T12:46:50;99724.41;;;9.29;45.44
66430;BME280;53242;51.694;10.006;2023-04-26T12:49:12;99725.28;;;9.21;45.15
66430;BME280;53242;51.694;10.006;2023-04-26T12:51:35;99722.72;;;9.13;45.15
66430;BME280;53242;51.694;10.006;2023-04-26T12:53:57;99722.28;;;9.24;44.77
66430;BME280;53242;51.694;10.006;2023-04-26T12:56:20;99726.84;;;9.45;44.69
66430;BME280;53242;51.694;10.006;2023-04-26T12:58:42;99727.84;;;9.59;45.78